Pentwater, Michigan
Current Conditions -  °F | °C
As of 8:55 PM on Monday 20 Oct 2014 (Local Time) from KLDM Reporting Station
Drizzle Drizzle  
Wind Chill: 44°   Ceiling: 1400
Heat Index: 47°   Visibility: 7mi
Dew Point: 46°   Wind: 7mph
Humidity: 93%   Direction: 360°N
Pressure: 29.96"   Gusts: NA
Location:  43.78°N, 86.43°W
Report Text: KLDM 210055Z AUTO 36006KT 7SM DZ SCT010 BKN014 OVC023 09/08 A2996 RMK AO2 T00860076
Loading
Personal Weather Stations






























Interactive Weather Map
Tropical Storm Tracking
New forecast layout! Learn more

10-Day Weather Forecast

Advertisements
Track Severe Weather on mobile